Time;durP1;ratioP1;P1;durP2;ratioP2;P2;SDS_P1;SDS_P2;PMS_P1;PMS_P2;Temp;Humidity;BMP_temperature;BMP_pressure;BME280_temperature;BME280_humidity;BME280_pressure;Samples;Min_cycle;Max_cycle;Signal;HPM_P1;HPM_P2
2021/05/24 04:53:43;;;;;;;2.90;2.70;;;;;;;13.42;75.04;100424.94;1842811;77;21659;-65
2021/05/24 04:56:11;;;;;;;4.03;2.40;;;;;;;13.42;75.16;100424.09;1779016;77;20967;-65
2021/05/24 04:58:38;;;;;;;6.22;3.98;;;;;;;13.47;75.59;100428.58;1793252;77;21039;-64
2021/05/24 05:01:05;;;;;;;7.58;6.65;;;;;;;13.55;75.90;100443.34;1793909;77;20999;-65
2021/05/24 05:03:34;;;;;;;4.22;3.72;;;;;;;13.61;76.41;100443.77;1788438;77;20999;-66
2021/05/24 05:06:02;;;;;;;5.10;3.17;;;;;;;13.68;76.78;100454.23;1793064;77;21034;-66
2021/05/24 05:08:30;;;;;;;2.72;2.52;;;;;;;13.72;76.68;100452.27;1787040;77;20944;-66
2021/05/24 05:10:57;;;;;;;3.77;2.87;;;;;;;13.78;76.55;100457.13;1787585;77;21605;-65
2021/05/24 05:13:26;;;;;;;2.77;2.10;;;;;;;13.82;76.46;100457.78;1788709;77;21543;-68
2021/05/24 05:15:53;;;;;;;3.62;2.80;;;;;;;;;;1789776;77;20975;-70
2021/05/24 05:18:20;;;;;;;2.98;2.70;;;;;;;13.91;76.66;100480.77;1792709;77;21107;-68
2021/05/24 05:20:49;;;;;;;3.05;2.85;;;;;;;13.91;76.96;100482.08;1791315;77;21608;-67
2021/05/24 05:23:17;;;;;;;4.10;3.35;;;;;;;13.91;77.64;100486.84;1792284;79;21156;-68
2021/05/24 05:25:44;;;;;;;3.17;2.87;;;;;;;13.92;77.99;100489.84;1789550;77;21279;-70
2021/05/24 05:28:11;;;;;;;3.65;2.40;;;;;;;13.95;78.14;100489.64;1791774;79;21027;-67
2021/05/24 05:30:38;;;;;;;4.28;2.77;;;;;;;13.97;78.07;100489.55;1790134;77;21558;-68
2021/05/24 05:33:06;;;;;;;7.60;2.80;;;;;;;14.00;78.02;100491.95;1790179;79;20952;-65
2021/05/24 05:35:34;;;;;;;6.62;3.08;;;;;;;14.02;78.25;100490.91;1804108;79;21762;-66
2021/05/24 05:38:01;;;;;;;7.03;3.40;;;;;;;14.06;78.60;100490.25;1791327;77;20947;-66
2021/05/24 05:40:31;;;;;;;6.30;3.30;;;;;;;14.12;79.10;100494.27;1790573;79;21640;-68
2021/05/24 05:43:01;;;;;;;5.20;2.67;;;;;;;14.16;79.50;100498.37;1788558;79;20925;-67
2021/05/24 05:45:29;;;;;;;2.80;2.60;;;;;;;14.19;79.85;100496.88;1785079;79;20948;-67
2021/05/24 05:47:56;;;;;;;3.80;3.10;;;;;;;14.22;79.92;100499.30;1792759;79;21427;-67
2021/05/24 05:50:23;;;;;;;4.70;3.70;;;;;;;14.24;80.03;100511.36;1788991;79;20904;-66
2021/05/24 05:52:50;;;;;;;3.50;3.20;;;;;;;14.27;80.50;100514.25;1733935;82;20943;-69
2021/05/24 05:55:20;;;;;;;3.70;3.30;;;;;;;14.29;80.53;100519.77;1723334;82;20911;-71
2021/05/24 05:57:48;;;;;;;4.40;3.47;;;;;;;14.32;80.36;100523.98;1773317;79;21031;-71
2021/05/24 06:00:17;;;;;;;7.20;3.22;;;;;;;14.36;80.60;100522.84;1779904;79;21055;-68
2021/05/24 06:02:44;;;;;;;7.33;4.45;;;;;;;14.41;80.09;100523.39;1775054;79;21031;-69
2021/05/24 06:05:12;;;;;;;6.05;3.40;;;;;;;14.47;80.26;100526.09;1778515;79;20977;-70
2021/05/24 06:07:40;;;;;;;3.80;3.35;;;;;;;14.49;80.14;100527.67;1723738;82;20929;-69
2021/05/24 06:10:09;;;;;;;5.78;3.30;;;;;;;14.49;80.34;100527.67;1727156;82;20953;-70
2021/05/24 06:12:37;;;;;;;5.05;3.42;;;;;;;14.45;80.80;100539.29;1727583;82;21051;-70
2021/05/24 06:15:07;;;;;;;4.35;3.45;;;;;;;14.41;81.17;100546.98;1726760;82;20981;-67
2021/05/24 06:17:34;;;;;;;3.72;3.25;;;;;;;14.35;81.09;100541.66;1787189;79;21011;-67
2021/05/24 06:20:01;;;;;;;3.35;3.12;;;;;;;14.31;81.36;100549.33;1698910;81;20972;-67
2021/05/24 06:22:28;;;;;;;4.03;3.60;;;;;;;14.29;81.78;100552.52;1734769;82;20889;-67
2021/05/24 06:24:55;;;;;;;3.67;3.37;;;;;;;14.27;82.53;100564.03;1790878;79;21416;-66
2021/05/24 06:27:22;;;;;;;4.53;3.50;;;;;;;14.26;82.60;100559.25;1781539;79;20916;-64
2021/05/24 06:29:50;;;;;;;3.45;3.15;;;;;;;14.23;82.80;100559.45;1778300;79;21485;-68
2021/05/24 06:32:17;;;;;;;3.15;2.80;;;;;;;14.18;83.19;100560.20;1780489;78;21734;-67
2021/05/24 06:34:45;;;;;;;2.70;2.50;;;;;;;14.14;82.99;100561.80;1778131;79;21638;-66
2021/05/24 06:37:12;;;;;;;4.20;2.67;;;;;;;14.09;82.63;100558.62;1777734;79;21440;-68
2021/05/24 06:39:39;;;;;;;2.30;2.10;;;;;;;14.07;81.95;100573.58;1719552;82;20993;-66
2021/05/24 06:42:06;;;;;;;2.70;2.50;;;;;;;14.05;81.40;100572.83;1727292;82;21016;-65
2021/05/24 06:44:33;;;;;;;5.05;2.50;;;;;;;14.01;81.37;100569.09;1774675;79;21046;-68
2021/05/24 06:47:01;;;;;;;5.92;2.92;;;;;;;13.99;81.42;100577.51;1771169;79;20964;-68
2021/05/24 06:49:29;;;;;;;5.80;2.90;;;;;;;13.98;81.65;100590.27;1775160;79;21815;-67
2021/05/24 06:51:57;;;;;;;8.20;3.70;;;;;;;13.97;81.98;100600.36;1768778;79;21713;-65
2021/05/24 06:54:24;;;;;;;6.05;3.85;;;;;;;14.00;82.54;100601.92;1781774;79;20986;-65
2021/05/24 06:56:52;;;;;;;3.17;2.87;;;;;;;14.03;82.67;100610.43;1791104;79;20922;-65
2021/05/24 06:59:20;;;;;;;4.50;2.80;;;;;;;14.07;82.94;100618.09;1779927;79;20991;-66
2021/05/24 07:01:47;;;;;;;3.20;2.92;;;;;;;14.12;83.01;100623.91;1783120;79;21560;-66
2021/05/24 07:04:14;;;;;;;5.00;3.35;;;;;;;14.15;83.25;100631.11;1778532;79;21056;-66
2021/05/24 07:06:42;;;;;;;7.62;3.65;;;;;;;14.18;83.33;100641.86;1779330;79;20977;-64
2021/05/24 07:09:11;;;;;;;9.05;4.30;;;;;;;14.22;83.76;100652.53;1791940;79;21019;-64
2021/05/24 07:11:38;;;;;;;8.70;3.95;;;;;;;14.27;83.84;100651.78;1797336;79;20929;-68
2021/05/24 07:14:06;;;;;;;5.92;3.40;;;;;;;14.32;83.98;100647.10;1775375;79;22047;-66
2021/05/24 07:16:33;;;;;;;6.40;2.92;;;;;;;14.37;83.45;100650.75;1784487;79;21254;-68
2021/05/24 07:19:01;;;;;;;6.83;3.22;;;;;;;14.39;83.30;100649.72;1792157;79;20983;-68
2021/05/24 07:21:28;;;;;;;15.03;5.58;;;;;;;14.41;83.29;100658.77;1796410;79;21075;-69
2021/05/24 07:23:58;;;;;;;10.40;4.45;;;;;;;14.42;83.56;100673.11;1786723;79;21566;-67
2021/05/24 07:26:25;;;;;;;8.98;3.98;;;;;;;14.46;83.83;100674.61;1793404;79;21961;-66
2021/05/24 07:28:52;;;;;;;4.15;3.00;;;;;;;14.51;84.03;100675.17;1791325;79;20979;-72
2021/05/24 07:31:21;;;;;;;7.45;3.33;;;;;;;14.55;83.85;100676.67;1780338;79;20971;-71
2021/05/24 07:33:48;;;;;;;7.97;3.60;;;;;;;14.62;83.72;100687.61;1727859;82;20924;-65
2021/05/24 07:36:16;;;;;;;9.03;4.00;;;;;;;14.67;83.87;100681.63;1718274;82;21497;-67
2021/05/24 07:38:43;;;;;;;6.53;3.62;;;;;;;14.74;83.82;100691.25;1790068;79;21479;-67
2021/05/24 07:41:11;;;;;;;7.67;4.17;;;;;;;14.81;83.85;100693.37;1791787;79;21051;-69
2021/05/24 07:43:38;;;;;;;4.62;3.37;;;;;;;14.88;84.09;100689.42;1799219;79;21086;-70
2021/05/24 07:46:07;;;;;;;10.50;4.72;;;;;;;14.93;83.33;100689.13;1732541;82;20998;-70
2021/05/24 07:48:34;;;;;;;10.40;4.72;;;;;;;14.97;83.15;100695.88;1715964;82;21642;-75
2021/05/24 07:51:03;;;;;;;5.92;3.70;;;;;;;15.03;82.71;100697.27;1733188;82;21065;-67
2021/05/24 07:53:31;;;;;;;4.22;3.08;;;;;;;15.05;82.30;100698.85;1733936;80;21023;-66
2021/05/24 07:55:58;;;;;;;5.78;2.45;;;;;;;15.09;82.23;100699.03;1722921;83;21558;-66
2021/05/24 07:58:26;;;;;;;3.00;2.67;;;;;;;15.14;81.95;100702.67;1724248;83;21002;-68
2021/05/24 08:00:54;;;;;;;7.10;3.02;;;;;;;15.17;81.81;100700.69;1722894;83;20983;-68
2021/05/24 08:03:22;;;;;;;4.90;2.45;;;;;;;15.23;81.70;100708.61;1710713;83;21895;-69
2021/05/24 08:05:52;;;;;;;6.40;3.02;;;;;;;15.29;81.29;100710.37;1717381;83;21532;-67
2021/05/24 08:08:20;;;;;;;4.35;2.10;;;;;;;15.35;81.30;100712.59;1711648;83;20988;-69
2021/05/24 08:10:48;;;;;;;14.87;2.85;;;;;;;15.41;80.88;100708.73;1711496;83;20987;-67
2021/05/24 08:13:15;;;;;;;4.85;2.70;;;;;;;15.47;80.47;100712.75;1723195;83;21671;-68
2021/05/24 08:15:42;;;;;;;3.95;2.98;;;;;;;15.49;80.36;100709.55;1704048;83;21088;-67
2021/05/24 08:18:09;;;;;;;5.37;2.92;;;;;;;15.52;81.01;100706.26;1721703;83;20897;-67
2021/05/24 08:20:37;;;;;;;5.05;2.55;;;;;;;15.58;80.37;100706.36;1715829;83;20983;-68
2021/05/24 08:23:05;;;;;;;3.60;2.52;;;;;;;15.64;80.03;100712.48;1720644;83;20976;-66
2021/05/24 08:25:32;;;;;;;3.10;2.02;;;;;;;15.69;79.54;100711.72;1723365;83;20947;-68
2021/05/24 08:27:59;;;;;;;2.27;2.08;;;;;;;15.74;79.42;100714.87;1711412;83;22108;-68
2021/05/24 08:30:27;;;;;;;2.80;2.58;;;;;;;15.80;79.37;100717.58;1717408;83;21019;-69
2021/05/24 08:32:54;;;;;;;5.22;2.45;;;;;;;15.83;78.30;100714.74;1711490;83;21529;-68
2021/05/24 08:35:22;;;;;;;3.65;3.05;;;;;;;15.84;78.07;100717.27;1709174;82;21605;-69
2021/05/24 08:37:49;;;;;;;4.15;2.20;;;;;;;15.87;77.47;100710.50;1708500;83;20969;-68
2021/05/24 08:40:18;;;;;;;2.87;2.50;;;;;;;15.86;77.10;100710.59;1707665;83;21107;-65
2021/05/24 08:42:46;;;;;;;3.05;2.40;;;;;;;15.87;76.54;100715.75;1709609;83;21058;-69
2021/05/24 08:45:14;;;;;;;2.80;2.50;;;;;;;15.87;76.19;100717.53;1706701;83;21055;-69
2021/05/24 08:47:41;;;;;;;2.72;2.50;;;;;;;15.86;75.99;100718.48;1685522;83;20964;-64
2021/05/24 08:50:10;;;;;;;3.08;2.60;;;;;;;15.86;76.37;100714.54;1711760;83;20941;-65
2021/05/24 08:52:37;;;;;;;5.95;2.72;;;;;;;15.86;76.45;100717.16;1695091;83;21310;-67
2021/05/24 08:55:05;;;;;;;3.42;2.33;;;;;;;15.86;76.25;100708.81;1713881;81;21016;-67
2021/05/24 08:57:34;;;;;;;2.92;2.60;;;;;;;15.89;76.15;100709.08;1719670;82;21017;-66
2021/05/24 09:00:01;;;;;;;5.58;3.08;;;;;;;15.93;76.28;100719.28;1688435;84;21020;-66
2021/05/24 09:02:28;;;;;;;6.12;3.90;;;;;;;15.98;76.24;100721.13;1736816;82;21033;-65
2021/05/24 09:04:55;;;;;;;4.90;3.70;;;;;;;16.03;76.58;100726.52;1725261;82;21427;-67
2021/05/24 09:07:24;;;;;;;4.22;2.65;;;;;;;16.06;76.09;100727.15;1691069;82;20933;-64
2021/05/24 09:12:39;;;;;;;6.72;2.70;;;;;;;15.96;74.17;100737.47;1708519;82;21567;-63
2021/05/24 09:15:13;;;;;;;6.53;2.80;;;;;;;15.88;75.13;100735.81;1730728;82;20996;-67
2021/05/24 09:17:50;;;;;;;6.47;3.20;;;;;;;15.91;74.87;100742.66;1704246;82;20992;-66
2021/05/24 09:20:29;;;;;;;8.93;2.87;;;;;;;15.93;74.09;100745.55;1736310;82;21559;-65
2021/05/24 09:23:25;;;;;;;5.08;2.30;;;;;;;15.94;74.45;100749.86;1715873;82;21154;-65
2021/05/24 09:26:10;;;;;;;2.47;1.90;;;;;;;15.98;73.27;100746.55;1720342;82;20977;-67
2021/05/24 09:28:51;;;;;;;4.08;2.55;;;;;;;15.98;73.35;100739.52;1718540;82;20961;-67
2021/05/24 09:31:24;;;;;;;3.80;2.15;;;;;;;16.03;73.29;100742.27;1716904;82;21103;-69
2021/05/24 09:34:00;;;;;;;5.75;2.17;;;;;;;16.06;74.08;100740.76;1721186;82;21601;-66
2021/05/24 09:36:29;;;;;;;2.35;1.90;;;;;;;16.15;73.47;100745.39;1721876;82;20914;-69
2021/05/24 09:39:08;;;;;;;2.20;1.95;;;;;;;16.26;73.82;100737.63;1719537;82;21036;-67
2021/05/24 09:41:44;;;;;;;2.17;1.80;;;;;;;16.37;72.15;100731.17;1717000;82;21261;-70
2021/05/24 09:44:25;;;;;;;2.02;1.90;;;;;;;16.53;72.12;100721.72;1720888;82;21057;-68
2021/05/24 09:46:52;;;;;;;2.12;2.00;;;;;;;16.72;72.63;100722.63;1719592;82;20987;-67
2021/05/24 09:49:24;;;;;;;2.47;1.62;;;;;;;16.89;72.15;100710.41;1720076;82;20874;-66
2021/05/24 09:51:52;;;;;;;2.00;1.90;;;;;;;17.02;71.53;100698.07;1720203;82;20909;-66
2021/05/24 09:54:23;;;;;;;3.42;1.87;;;;;;;17.13;71.59;100695.50;1729544;81;20944;-68
2021/05/24 09:56:49;;;;;;;5.40;4.15;;;;;;;17.25;70.70;100696.38;1743771;81;21972;-66
2021/05/24 09:59:22;;;;;;;2.77;2.12;;;;;;;17.36;69.64;100700.86;1752169;81;21628;-68
2021/05/24 10:01:54;;;;;;;2.02;1.60;;;;;;;17.47;68.00;100708.34;1749937;81;20948;-66
2021/05/24 10:04:24;;;;;;;2.25;1.50;;;;;;;17.52;66.55;100696.15;1741598;81;20964;-65
2021/05/24 10:06:52;;;;;;;1.75;1.42;;;;;;;17.53;65.81;100707.89;1733238;80;21115;-65
2021/05/24 10:09:20;;;;;;;4.10;1.57;;;;;;;17.45;64.43;100710.24;1747725;82;21268;-66
2021/05/24 10:11:51;;;;;;;1.50;1.40;;;;;;;17.30;64.35;100711.36;1757733;81;21020;-65
2021/05/24 10:14:22;;;;;;;1.57;1.30;;;;;;;17.20;62.98;100707.23;1749270;81;21059;-66
2021/05/24 10:17:02;;;;;;;1.60;1.50;;;;;;;17.14;64.07;100702.45;1742996;81;21064;-65
2021/05/24 10:19:28;;;;;;;2.50;1.40;;;;;;;17.07;62.64;100704.31;1737006;81;21023;-64
2021/05/24 10:21:57;;;;;;;2.17;1.50;;;;;;;16.94;62.86;100704.36;1755998;81;22316;-63
2021/05/24 10:24:25;;;;;;;1.80;1.50;;;;;;;16.94;63.66;100709.14;1735623;81;21040;-65
2021/05/24 10:27:01;;;;;;;4.10;1.40;;;;;;;17.00;64.19;100706.55;1729854;83;21000;-65
2021/05/24 10:29:31;;;;;;;1.40;1.30;;;;;;;17.10;63.56;100706.25;1729051;83;21680;-65
2021/05/24 10:32:00;;;;;;;1.65;1.32;;;;;;;17.21;64.17;100715.50;1729488;83;20940;-66
2021/05/24 10:34:30;;;;;;;1.85;1.40;;;;;;;17.29;62.92;100709.68;1738619;80;21030;-65
2021/05/24 10:37:12;;;;;;;1.40;1.30;;;;;;;17.33;62.59;100704.55;1687897;81;21039;-64
2021/05/24 10:40:06;;;;;;;1.20;1.00;;;;;;;17.39;62.92;100712.48;1754242;81;20941;-65
2021/05/24 10:42:41;;;;;;;1.65;1.05;;;;;;;17.45;62.63;100712.88;1736534;81;21101;-65
2021/05/24 10:45:18;;;;;;;2.72;1.20;;;;;;;17.57;62.39;100715.09;1733658;81;21030;-65
2021/05/24 10:47:56;;;;;;;1.95;1.52;;;;;;;17.66;60.86;100719.67;1747007;81;21444;-66
2021/05/24 10:50:25;;;;;;;1.55;1.45;;;;;;;17.76;61.18;100722.47;1735984;81;21676;-65
2021/05/24 10:53:09;;;;;;;2.45;1.30;;;;;;;17.88;60.75;100724.19;1731793;81;21593;-66
2021/05/24 10:55:42;;;;;;;1.30;1.20;;;;;;;17.96;60.40;100729.72;1729872;81;21016;-66
2021/05/24 10:58:14;;;;;;;1.22;1.12;;;;;;;18.07;60.07;100740.73;1746244;81;21020;-64
2021/05/24 11:01:04;;;;;;;1.60;1.47;;;;;;;18.08;58.63;100735.83;1729960;83;21648;-66
2021/05/24 11:03:32;;;;;;;1.47;1.37;;;;;;;18.01;59.11;100727.55;1753304;81;20984;-65
2021/05/24 11:06:15;;;;;;;2.37;1.40;;;;;;;17.94;59.10;100725.88;1742090;81;20976;-66
2021/05/24 11:08:51;;;;;;;1.07;1.07;;;;;;;17.91;58.93;100731.86;1737891;80;21052;-65
2021/05/24 11:11:31;;;;;;;5.00;1.42;;;;;;;17.89;59.11;100729.34;1754295;81;21067;-65
2021/05/24 11:14:08;;;;;;;2.72;1.55;;;;;;;17.96;58.96;100729.72;1744684;81;21693;-66
2021/05/24 11:16:36;;;;;;;1.65;1.20;;;;;;;18.05;58.46;100725.52;1760504;80;21020;-64
2021/05/24 11:19:14;;;;;;;4.72;1.30;;;;;;;18.17;58.64;100721.95;1743766;81;20956;-66
2021/05/24 11:22:01;;;;;;;1.42;1.30;;;;;;;18.32;58.25;100719.47;1740564;81;20944;-64
2021/05/24 11:24:44;;;;;;;3.17;1.12;;;;;;;18.47;58.29;100718.25;1703035;81;20969;-66
2021/05/24 11:27:15;;;;;;;1.20;1.20;;;;;;;18.62;57.59;100721.05;1752986;80;21231;-66
2021/05/24 11:29:51;;;;;;;1.62;1.52;;;;;;;18.65;56.08;100727.41;1746551;80;21645;-66
2021/05/24 11:32:23;;;;;;;1.40;1.10;;;;;;;18.57;55.74;100720.53;1742984;80;21040;-66
2021/05/24 11:34:52;;;;;;;2.40;1.42;;;;;;;18.42;56.02;100711.17;1746500;80;21612;-66
2021/05/24 11:37:21;;;;;;;1.30;1.20;;;;;;;18.32;57.41;100716.34;1746111;80;21486;-66
2021/05/24 11:39:56;;;;;;;2.47;1.25;;;;;;;18.25;56.49;100716.94;1745495;80;21014;-66
2021/05/24 11:42:29;;;;;;;3.25;1.40;;;;;;;18.12;57.36;100722.78;1742400;80;21032;-66
2021/05/24 11:45:00;;;;;;;1.60;1.50;;;;;;;18.04;57.80;100714.61;1742938;81;21078;-66
2021/05/24 11:47:26;;;;;;;3.55;1.35;;;;;;;17.96;59.00;100720.02;1740329;81;21028;-64
2021/05/24 11:49:56;;;;;;;1.52;1.32;;;;;;;18.00;59.73;100720.59;1751425;80;20952;-67
2021/05/24 11:52:25;;;;;;;2.62;1.50;;;;;;;18.04;58.89;100714.14;1751059;80;21075;-66
2021/05/24 11:54:52;;;;;;;1.45;1.07;;;;;;;17.99;58.58;100714.48;1742664;81;20969;-66
2021/05/24 11:57:25;;;;;;;2.47;1.10;;;;;;;17.97;57.59;100714.27;1734808;81;21712;-65
2021/05/24 11:59:52;;;;;;;2.30;1.60;;;;;;;17.97;57.61;100711.16;1741959;81;20933;-65
2021/05/24 12:02:22;;;;;;;1.15;1.10;;;;;;;18.00;58.45;100710.05;1756351;80;21480;-65
2021/05/24 12:04:49;;;;;;;1.62;1.20;;;;;;;17.98;57.64;100704.93;1749585;81;21092;-65
2021/05/24 12:07:20;;;;;;;2.72;1.72;;;;;;;18.01;58.11;100717.00;1739691;80;21569;-67
2021/05/24 12:09:51;;;;;;;8.73;2.00;;;;;;;18.05;57.22;100711.86;1735992;80;21004;-66
2021/05/24 12:12:24;;;;;;;2.30;1.60;;;;;;;18.06;56.75;100711.39;1736904;80;21009;-69
2021/05/24 12:14:55;;;;;;;1.40;1.20;;;;;;;18.02;57.73;100708.14;1737124;81;21724;-64
2021/05/24 12:17:25;;;;;;;1.92;1.32;;;;;;;18.02;57.42;100708.63;1746038;81;21106;-67
2021/05/24 12:19:54;;;;;;;2.67;1.35;;;;;;;18.02;57.77;100704.67;1738685;81;21685;-65
2021/05/24 12:22:24;;;;;;;2.92;2.33;;;;;;;17.96;57.22;100705.53;1750307;81;21008;-65
2021/05/24 12:24:52;;;;;;;2.42;2.22;;;;;;;17.89;57.33;100716.16;1740717;81;21020;-66
2021/05/24 12:27:21;;;;;;;1.57;1.47;;;;;;;17.84;57.95;100708.25;1748884;81;20960;-65
2021/05/24 12:30:29;;;;;;;1.87;1.40;;;;;;;17.83;58.37;100711.83;1738809;81;21791;-67
2021/05/24 12:32:58;;;;;;;1.47;1.37;;;;;;;17.84;56.83;100709.08;1739048;81;20996;-68
2021/05/24 12:35:32;;;;;;;2.33;1.67;;;;;;;17.76;56.08;100705.34;1732696;80;21541;-68
2021/05/24 12:38:10;;;;;;;1.90;1.50;;;;;;;17.68;56.33;100707.23;1756473;79;20954;-63
2021/05/24 12:40:31;;;;;;;1.45;1.17;;;;;;;17.69;57.05;100704.13;1741174;81;21529;-65
2021/05/24 12:42:58;;;;;;;1.27;1.17;;;;;;;17.76;56.58;100698.28;1738407;81;21098;-65
2021/05/24 12:45:28;;;;;;;5.28;1.20;;;;;;;17.84;56.95;100700.34;1747812;81;21513;-67
2021/05/24 12:48:12;;;;;;;1.32;1.20;;;;;;;17.91;57.25;100693.17;1719624;82;21006;-67
2021/05/24 12:50:42;;;;;;;1.10;1.00;;;;;;;18.02;57.56;100698.92;1736097;81;21020;-63
2021/05/24 12:53:12;;;;;;;2.95;1.62;;;;;;;18.12;56.44;100688.04;1717848;83;20972;-66
2021/05/24 12:55:39;;;;;;;2.50;1.00;;;;;;;18.14;56.41;100684.80;1732201;81;21051;-63
2021/05/24 12:58:13;;;;;;;2.55;1.45;;;;;;;18.15;55.19;100689.59;1736970;82;20993;-68
2021/05/24 13:00:43;;;;;;;1.52;1.20;;;;;;;18.12;54.70;100695.11;1705293;83;20924;-65
2021/05/24 13:03:11;;;;;;;2.08;1.12;;;;;;;18.02;54.39;100698.08;1780594;79;20984;-65
2021/05/24 13:05:39;;;;;;;1.20;1.10;;;;;;;17.92;54.73;100697.48;1775769;79;20979;-67
2021/05/24 13:08:06;;;;;;;1.75;1.35;;;;;;;17.85;55.20;100702.02;1775841;79;21438;-70
2021/05/24 13:10:37;;;;;;;0.90;0.90;;;;;;;17.77;54.64;100710.97;1708543;82;21596;-66
2021/05/24 13:13:19;;;;;;;3.75;1.32;;;;;;;17.67;54.99;100710.81;1770498;79;21537;-67
2021/05/24 13:15:48;;;;;;;1.92;1.20;;;;;;;17.57;55.03;100704.08;1789472;79;21061;-65
2021/05/24 13:18:48;;;;;;;2.47;1.30;;;;;;;17.46;55.55;100710.61;1775117;79;21026;-66
2021/05/24 13:21:32;;;;;;;1.40;1.30;;;;;;;17.38;56.02;100704.22;1731067;82;21439;-68
2021/05/24 13:24:02;;;;;;;5.25;1.65;;;;;;;17.31;55.83;100706.46;1772910;79;21624;-70
2021/05/24 13:26:54;;;;;;;1.30;1.20;;;;;;;17.26;56.17;100702.84;1787322;79;21631;-66
2021/05/24 13:31:41;;;;;;;3.70;1.10;;;;;;;17.23;55.48;100704.39;1778180;79;21011;-66
2021/05/24 13:34:09;;;;;;;2.83;1.15;;;;;;;17.20;55.36;100699.81;1779665;79;21069;-68
2021/05/24 13:36:40;;;;;;;1.62;1.22;;;;;;;17.17;55.58;100710.12;1780030;79;21684;-68
2021/05/24 13:39:19;;;;;;;1.35;1.10;;;;;;;17.13;55.13;100708.66;1778370;79;21640;-66
2021/05/24 13:41:50;;;;;;;2.17;1.10;;;;;;;17.11;54.93;100709.25;1782154;79;20992;-67
2021/05/24 13:44:20;;;;;;;1.65;0.98;;;;;;;17.06;55.10;100715.31;1783426;79;20964;-70
2021/05/24 13:46:47;;;;;;;1.62;1.20;;;;;;;17.05;55.29;100711.48;1792140;79;21739;-68
2021/05/24 13:49:15;;;;;;;2.58;1.20;;;;;;;17.04;55.43;100715.06;1778503;79;21058;-69
2021/05/24 13:51:43;;;;;;;1.12;1.10;;;;;;;17.03;54.99;100720.80;1779520;79;20983;-63
2021/05/24 13:54:11;;;;;;;4.28;1.55;;;;;;;17.02;55.26;100709.06;1776995;79;21668;-64
2021/05/24 13:56:38;;;;;;;2.45;1.40;;;;;;;17.03;55.59;100718.16;1775077;79;21593;-72
2021/05/24 13:59:05;;;;;;;1.37;1.27;;;;;;;17.03;56.50;100714.70;1779771;80;21054;-65
2021/05/24 14:01:34;;;;;;;0.93;0.90;;;;;;;17.03;55.90;100718.16;1781285;80;21058;-66
2021/05/24 14:04:01;;;;;;;4.17;1.30;;;;;;;17.03;56.06;100719.48;1781066;79;21481;-64
